Time;durP1;ratioP1;P1;durP2;ratioP2;P2;SDS_P1;SDS_P2;PMS_P1;PMS_P2;Temp;Humidity;BMP_temperature;BMP_pressure;BME280_temperature;BME280_humidity;BME280_pressure;Samples;Min_cycle;Max_cycle;Signal;HPM_P1;HPM_P2
2020/12/03 00:01:44;;;;;;;20.37;14.87;;;7.40;94.00;;;;;;5103922;28;20901;-81
2020/12/03 00:04:12;;;;;;;18.90;14.37;;;7.40;93.90;;;;;;5104161;28;20464;-82
2020/12/03 00:06:43;;;;;;;19.40;14.57;;;7.40;93.90;;;;;;5104114;28;20451;-81
2020/12/03 00:09:11;;;;;;;18.70;14.37;;;7.40;93.90;;;;;;5103657;28;20870;-81
2020/12/03 00:11:42;;;;;;;21.43;14.50;;;7.40;94.00;;;;;;5103497;28;20478;-81
2020/12/03 00:14:08;;;;;;;17.60;13.17;;;7.40;93.90;;;;;;5104089;28;20471;-81
2020/12/03 00:16:35;;;;;;;20.20;14.20;;;7.40;93.90;;;;;;5104197;28;20439;-81
2020/12/03 00:19:04;;;;;;;18.50;13.93;;;7.40;93.80;;;;;;5103439;28;20974;-81
2020/12/03 00:21:33;;;;;;;19.33;15.00;;;7.40;93.70;;;;;;5103237;28;20440;-81
2020/12/03 00:23:59;;;;;;;16.97;13.40;;;7.30;93.70;;;;;;5102241;28;20472;-81
2020/12/03 00:26:27;;;;;;;17.83;13.83;;;7.30;93.80;;;;;;5103133;28;20901;-81
2020/12/03 00:28:53;;;;;;;17.27;12.97;;;7.20;93.90;;;;;;5102341;28;20444;-81
2020/12/03 00:31:19;;;;;;;22.50;14.17;;;7.20;94.00;;;;;;5102929;28;20890;-81
2020/12/03 00:33:45;;;;;;;20.63;14.20;;;7.20;94.10;;;;;;5102844;28;20470;-81
2020/12/03 00:36:12;;;;;;;20.30;14.03;;;7.10;94.10;;;;;;5102269;28;20448;-81
2020/12/03 00:38:39;;;;;;;18.47;13.70;;;7.10;94.20;;;;;;5102477;28;20439;-81
2020/12/03 00:41:05;;;;;;;19.23;13.93;;;7.20;94.20;;;;;;5102633;28;20439;-81
2020/12/03 00:43:31;;;;;;;22.40;13.63;;;7.10;94.20;;;;;;5101799;28;20479;-81
2020/12/03 00:45:57;;;;;;;18.13;12.53;;;7.10;94.30;;;;;;5101655;28;20448;-81
2020/12/03 00:48:23;;;;;;;19.77;13.90;;;7.10;94.30;;;;;;5102934;28;20469;-81
2020/12/03 00:50:50;;;;;;;19.73;14.03;;;7.20;94.40;;;;;;5103697;28;20451;-81
2020/12/03 00:53:17;;;;;;;19.63;14.70;;;7.10;94.30;;;;;;5102840;28;21000;-81
2020/12/03 00:55:44;;;;;;;21.73;16.30;;;7.20;94.40;;;;;;5102305;28;20447;-81
2020/12/03 00:58:10;;;;;;;18.33;12.60;;;7.10;94.30;;;;;;5103792;28;20444;-81
2020/12/03 01:00:37;;;;;;;17.80;14.03;;;7.20;94.40;;;;;;5103294;28;20447;-80
2020/12/03 01:03:03;;;;;;;21.20;16.17;;;7.20;94.30;;;;;;5103586;28;20431;-82
2020/12/03 01:05:30;;;;;;;20.70;15.03;;;7.20;94.30;;;;;;5102864;28;20799;-82
2020/12/03 01:07:56;;;;;;;21.53;14.20;;;7.20;94.20;;;;;;5102157;28;20812;-81
2020/12/03 01:10:25;;;;;;;18.50;13.80;;;7.20;94.10;;;;;;5101789;28;20439;-81
2020/12/03 01:12:52;;;;;;;24.33;15.60;;;7.20;94.20;;;;;;5101877;28;20480;-81
2020/12/03 01:15:19;;;;;;;20.17;15.23;;;7.20;94.20;;;;;;5102464;28;20920;-80
2020/12/03 01:17:46;;;;;;;22.80;15.13;;;7.20;94.20;;;;;;5102136;28;20455;-82
2020/12/03 01:20:16;;;;;;;22.77;15.10;;;7.20;94.20;;;;;;5102471;28;20501;-82
2020/12/03 01:22:42;;;;;;;19.00;14.27;;;7.20;94.20;;;;;;5102530;28;20440;-83
2020/12/03 01:25:09;;;;;;;22.93;15.47;;;7.20;94.30;;;;;;5103295;28;20892;-81
2020/12/03 01:27:36;;;;;;;20.30;14.90;;;7.20;94.20;;;;;;5103676;28;20443;-83
2020/12/03 01:30:04;;;;;;;20.87;14.00;;;7.20;94.40;;;;;;5102352;28;20440;-83
2020/12/03 01:32:30;;;;;;;22.47;15.53;;;7.20;94.10;;;;;;5101975;28;20985;-83
2020/12/03 01:34:57;;;;;;;22.87;14.70;;;7.20;94.20;;;;;;5102526;28;20479;-83
2020/12/03 01:37:23;;;;;;;21.27;15.10;;;7.20;94.30;;;;;;5102630;28;20455;-83
2020/12/03 01:39:49;;;;;;;21.40;14.50;;;7.20;94.30;;;;;;5103148;28;20432;-83
2020/12/03 01:42:16;;;;;;;19.03;14.03;;;7.20;94.30;;;;;;5106812;28;20436;-81
2020/12/03 01:44:44;;;;;;;23.43;14.57;;;7.10;94.30;;;;;;5106442;28;20470;-81
2020/12/03 01:47:19;;;;;;;19.20;14.87;;;7.20;94.40;;;;;;5107214;28;20435;-81
2020/12/03 01:49:45;;;;;;;20.83;13.77;;;7.20;94.40;;;;;;5106873;28;20423;-81
2020/12/03 01:52:13;;;;;;;19.77;13.73;;;7.20;94.50;;;;;;5107159;28;20483;-81
2020/12/03 01:54:39;;;;;;;25.00;15.57;;;7.20;94.40;;;;;;5107227;28;20527;-81
2020/12/03 01:57:43;;;;;;;20.80;14.40;;;7.20;94.40;;;;;;5106879;28;20451;-80
2020/12/03 02:00:12;;;;;;;21.13;14.60;;;7.20;94.40;;;;;;5106815;28;20420;-80
2020/12/03 02:02:41;;;;;;;22.80;13.50;;;7.20;94.40;;;;;;5107025;28;20440;-80
2020/12/03 02:05:14;;;;;;;22.67;13.93;;;7.20;94.40;;;;;;5105669;28;20485;-82
2020/12/03 02:07:41;;;;;;;22.50;14.90;;;7.20;94.20;;;;;;5106648;28;20431;-81
2020/12/03 02:10:07;;;;;;;20.80;12.87;;;7.20;94.30;;;;;;5105789;28;20452;-82
2020/12/03 02:12:34;;;;;;;23.83;16.10;;;7.20;94.30;;;;;;5104880;28;20984;-81
2020/12/03 02:15:01;;;;;;;22.23;14.70;;;7.20;94.70;;;;;;5105105;28;20474;-81
2020/12/03 02:17:27;;;;;;;21.00;13.70;;;7.20;94.30;;;;;;5105180;28;20428;-81
2020/12/03 02:19:56;;;;;;;21.83;12.83;;;7.20;94.20;;;;;;5108318;28;20493;-81
2020/12/03 02:22:23;;;;;;;18.90;13.10;;;7.20;94.20;;;;;;5109608;28;20440;-81
2020/12/03 02:24:49;;;;;;;21.47;13.10;;;7.20;94.10;;;;;;5105160;28;20985;-81
2020/12/03 02:27:17;;;;;;;18.07;13.17;;;7.20;94.10;;;;;;5105955;28;20448;-81
2020/12/03 02:29:44;;;;;;;19.90;13.10;;;7.20;94.20;;;;;;5107160;28;20436;-81
2020/12/03 02:32:10;;;;;;;25.30;13.20;;;7.20;94.10;;;;;;5106734;28;20528;-81
2020/12/03 02:34:37;;;;;;;17.87;11.63;;;7.20;94.10;;;;;;5106625;28;20857;-81
2020/12/03 02:37:05;;;;;;;17.07;12.77;;;7.20;94.10;;;;;;5106201;28;20444;-81
2020/12/03 02:39:33;;;;;;;18.90;11.90;;;7.20;94.10;;;;;;5105926;28;20937;-81
2020/12/03 02:42:01;;;;;;;20.20;14.50;;;7.20;94.10;;;;;;5105874;28;20436;-81
2020/12/03 02:44:27;;;;;;;17.70;10.97;;;7.20;94.10;;;;;;5105863;28;20464;-81
2020/12/03 02:49:52;;;;;;;23.27;12.23;;;7.20;94.10;;;;;;5062373;28;20396;-81
2020/12/03 02:52:22;;;;;;;23.70;12.90;;;7.20;94.00;;;;;;5060959;28;20485;-81
2020/12/03 02:54:49;;;;;;;15.03;11.47;;;7.20;94.00;;;;;;5061874;28;20462;-81
2020/12/03 02:57:15;;;;;;;18.67;11.93;;;7.20;94.10;;;;;;5061379;28;20453;-81
2020/12/03 02:59:42;;;;;;;20.83;12.20;;;7.20;94.10;;;;;;5060793;28;20450;-80
2020/12/03 03:04:52;;;;;;;18.40;11.13;;;7.30;94.10;;;;;;5104304;28;20498;-81
2020/12/03 03:07:19;;;;;;;19.17;11.90;;;7.30;94.00;;;;;;5103852;28;20440;-81
2020/12/03 03:12:28;;;;;;;19.13;11.37;;;7.30;93.90;;;;;;5103984;28;20990;-81
2020/12/03 03:17:35;;;;;;;19.63;12.40;;;7.30;93.90;;;;;;5080339;28;20443;-84
2020/12/03 03:20:02;;;;;;;19.37;12.30;;;7.30;93.80;;;;;;5105090;28;20448;-84
2020/12/03 03:22:29;;;;;;;19.60;12.33;;;7.40;93.80;;;;;;5105744;28;20436;-84
2020/12/03 03:24:55;;;;;;;16.63;11.23;;;7.40;93.70;;;;;;5105084;28;20464;-84
2020/12/03 03:27:21;;;;;;;16.73;11.03;;;7.40;93.60;;;;;;5105114;28;20447;-84
2020/12/03 03:29:47;;;;;;;23.43;11.70;;;7.40;93.60;;;;;;5106957;28;20416;-84
2020/12/03 03:32:13;;;;;;;17.70;11.23;;;7.40;93.60;;;;;;5107721;28;20505;-84
2020/12/03 03:34:58;;;;;;;16.77;10.83;;;7.40;93.60;;;;;;5108557;28;20455;-84
2020/12/03 03:37:24;;;;;;;15.43;11.37;;;7.40;93.50;;;;;;5107526;28;20444;-84
2020/12/03 03:39:51;;;;;;;24.23;11.37;;;7.40;93.80;;;;;;5108346;28;20444;-84
2020/12/03 03:42:18;;;;;;;21.37;12.83;;;7.40;93.50;;;;;;5108232;28;20436;-84
2020/12/03 03:44:44;;;;;;;20.70;12.27;;;7.40;93.50;;;;;;5109755;28;20472;-85
2020/12/03 03:47:30;;;;;;;20.53;11.30;;;7.40;93.60;;;;;;5108806;28;20436;-84
2020/12/03 03:49:56;;;;;;;20.73;13.93;;;7.40;93.70;;;;;;5077423;28;20451;-84
2020/12/03 03:52:22;;;;;;;17.73;11.40;;;7.40;93.70;;;;;;5107323;28;20486;-83
2020/12/03 03:54:48;;;;;;;19.40;13.20;;;7.40;93.70;;;;;;5105688;28;20471;-84
2020/12/03 03:57:16;;;;;;;20.87;13.50;;;7.40;93.80;;;;;;5105939;28;20446;-84
2020/12/03 03:59:43;;;;;;;21.60;13.37;;;7.50;93.80;;;;;;5107620;28;20440;-84
2020/12/03 04:02:14;;;;;;;22.03;13.57;;;7.50;93.80;;;;;;5109091;28;20440;-84
2020/12/03 04:04:40;;;;;;;18.67;12.83;;;7.50;93.80;;;;;;5107498;28;20447;-84
2020/12/03 04:07:07;;;;;;;21.43;13.37;;;7.50;93.70;;;;;;5107566;28;20427;-84
2020/12/03 04:09:33;;;;;;;25.70;12.73;;;7.50;93.60;;;;;;5107962;28;20462;-84
2020/12/03 04:11:59;;;;;;;23.10;13.80;;;7.50;93.60;;;;;;5106750;28;21045;-84
2020/12/03 04:14:26;;;;;;;21.80;13.40;;;7.50;93.60;;;;;;5109244;28;20452;-84
2020/12/03 04:16:52;;;;;;;28.33;13.80;;;7.50;93.60;;;;;;5109312;28;20450;-84
2020/12/03 04:19:18;;;;;;;21.33;12.53;;;7.50;93.60;;;;;;5108628;28;20448;-83
2020/12/03 04:21:45;;;;;;;24.80;13.50;;;7.50;93.60;;;;;;5110617;28;20448;-84
2020/12/03 04:24:11;;;;;;;23.77;12.20;;;7.50;93.60;;;;;;5110416;28;20487;-84
2020/12/03 04:26:37;;;;;;;18.87;12.10;;;7.50;93.60;;;;;;5109165;28;20405;-83
2020/12/03 04:29:03;;;;;;;25.70;13.13;;;7.50;93.60;;;;;;5108971;28;20810;-84
2020/12/03 04:31:30;;;;;;;24.93;13.97;;;7.50;93.60;;;;;;5109107;28;20808;-84
2020/12/03 04:33:57;;;;;;;23.33;12.43;;;7.50;93.60;;;;;;5108403;28;20475;-83
2020/12/03 04:36:23;;;;;;;19.30;13.13;;;7.50;93.60;;;;;;5108462;28;20428;-84
2020/12/03 04:38:49;;;;;;;20.53;13.70;;;7.50;93.50;;;;;;5109403;28;20430;-84
2020/12/03 04:41:17;;;;;;;21.03;12.30;;;7.50;93.60;;;;;;5110704;28;20452;-84
2020/12/03 04:43:47;;;;;;;20.07;11.97;;;7.50;93.60;;;;;;5110576;28;20460;-84
2020/12/03 04:46:26;;;;;;;19.33;12.70;;;7.50;93.50;;;;;;5110732;28;20440;-84
2020/12/03 04:49:25;;;;;;;30.17;13.27;;;7.50;93.40;;;;;;5110506;28;20434;-84
2020/12/03 04:52:25;;;;;;;23.80;12.57;;;7.50;93.30;;;;;;5110801;28;20459;-84
2020/12/03 04:55:04;;;;;;;19.07;12.33;;;7.50;93.40;;;;;;5111888;28;20464;-84
2020/12/03 04:57:37;;;;;;;20.77;13.67;;;7.50;93.50;;;;;;5112334;28;20909;-83
2020/12/03 05:00:11;;;;;;;20.60;12.60;;;7.50;93.40;;;;;;5111169;28;20428;-84
2020/12/03 05:03:10;;;;;;;21.30;12.77;;;7.50;93.40;;;;;;5110080;28;20502;-84
2020/12/03 05:05:40;;;;;;;20.87;11.13;;;7.50;93.40;;;;;;5110325;28;20450;-84
2020/12/03 05:08:09;;;;;;;18.27;10.73;;;7.50;93.40;;;;;;5110072;28;20458;-84
2020/12/03 05:10:40;;;;;;;17.13;11.67;;;7.40;93.30;;;;;;5110405;28;20437;-85
2020/12/03 05:13:14;;;;;;;18.30;11.17;;;7.50;93.40;;;;;;5109635;28;20468;-84
2020/12/03 05:15:40;;;;;;;21.83;9.97;;;7.40;93.40;;;;;;5111980;28;20431;-84
2020/12/03 05:18:25;;;;;;;15.70;10.30;;;7.40;93.30;;;;;;5114735;28;20455;-84
2020/12/03 05:20:53;;;;;;;15.23;9.57;;;7.40;93.30;;;;;;5115019;28;20430;-84
2020/12/03 05:23:21;;;;;;;15.77;10.57;;;7.40;93.40;;;;;;5114965;28;20469;-84
2020/12/03 05:25:50;;;;;;;14.43;9.67;;;7.40;93.40;;;;;;5116137;28;20451;-84
2020/12/03 05:28:40;;;;;;;13.23;8.97;;;7.30;93.40;;;;;;5115682;28;20458;-84
2020/12/03 05:31:15;;;;;;;14.97;8.63;;;7.30;93.30;;;;;;5116913;28;20436;-84
2020/12/03 05:33:42;;;;;;;14.27;9.63;;;7.30;93.30;;;;;;5118645;28;20486;-84
2020/12/03 05:36:25;;;;;;;13.57;8.07;;;7.20;93.40;;;;;;5118138;28;20444;-84
2020/12/03 05:38:52;;;;;;;13.23;8.73;;;7.20;93.40;;;;;;5117029;28;20432;-84
2020/12/03 05:41:20;;;;;;;12.60;7.80;;;7.30;93.40;;;;;;5117298;28;20435;-84
2020/12/03 05:43:47;;;;;;;13.73;7.60;;;7.30;93.30;;;;;;5118849;28;20463;-84
2020/12/03 05:46:15;;;;;;;8.50;6.80;;;7.20;93.30;;;;;;5116280;28;20436;-84
2020/12/03 05:48:41;;;;;;;12.37;7.80;;;7.20;93.40;;;;;;5113496;28;20424;-84
2020/12/03 05:51:18;;;;;;;8.40;6.20;;;7.20;93.40;;;;;;5115775;28;20440;-84
2020/12/03 05:53:53;;;;;;;7.90;7.00;;;7.20;93.40;;;;;;5112631;28;20490;-83
2020/12/03 05:56:22;;;;;;;8.90;6.60;;;7.20;93.30;;;;;;5115847;28;20428;-84
2020/12/03 05:58:49;;;;;;;10.70;6.80;;;7.20;93.20;;;;;;5116799;28;20525;-84
2020/12/03 06:01:18;;;;;;;8.20;6.60;;;7.20;93.20;;;;;;5118084;28;20432;-83
2020/12/03 06:03:59;;;;;;;8.80;6.20;;;7.10;93.20;;;;;;5118868;28;20456;-83
2020/12/03 06:06:53;;;;;;;14.30;6.23;;;7.10;93.20;;;;;;5118468;28;20467;-83
2020/12/03 06:09:46;;;;;;;10.60;6.53;;;7.10;93.10;;;;;;5116478;28;20442;-83
2020/12/03 06:12:25;;;;;;;7.30;6.30;;;7.10;93.10;;;;;;5117337;28;20547;-84
2020/12/03 06:15:20;;;;;;;6.20;5.20;;;7.10;93.20;;;;;;5117628;28;20474;-84
2020/12/03 06:18:02;;;;;;;8.10;6.43;;;7.10;93.20;;;;;;5114903;28;20420;-84
2020/12/03 06:20:51;;;;;;;8.50;5.60;;;7.10;93.10;;;;;;5115236;28;20433;-84
2020/12/03 06:23:40;;;;;;;7.40;6.20;;;7.10;93.10;;;;;;5115513;28;20477;-84
2020/12/03 06:26:20;;;;;;;5.90;5.20;;;7.10;93.10;;;;;;5115121;28;20456;-84
2020/12/03 06:29:04;;;;;;;11.53;6.33;;;7.00;93.00;;;;;;5109250;28;20427;-83
2020/12/03 06:31:44;;;;;;;9.23;6.00;;;7.00;93.10;;;;;;5109418;28;20428;-84
2020/12/03 06:34:19;;;;;;;8.73;5.90;;;7.00;93.10;;;;;;5108971;28;21000;-84
2020/12/03 06:36:53;;;;;;;8.53;5.40;;;7.00;93.00;;;;;;5112745;28;20439;-84
2020/12/03 06:39:38;;;;;;;9.13;6.00;;;7.00;92.90;;;;;;5112042;28;20400;-84
2020/12/03 06:42:14;;;;;;;8.50;6.03;;;7.00;92.90;;;;;;5108956;28;20515;-84
2020/12/03 06:44:47;;;;;;;7.37;6.23;;;7.00;92.90;;;;;;5111767;28;20988;-83
2020/12/03 06:47:52;;;;;;;7.63;5.67;;;6.90;92.90;;;;;;5112382;28;20425;-84
2020/12/03 06:51:05;;;;;;;9.33;6.47;;;6.90;92.80;;;;;;5111898;28;20428;-83
2020/12/03 06:53:55;;;;;;;7.73;5.30;;;6.90;92.90;;;;;;5111561;28;20491;-84
2020/12/03 06:57:12;;;;;;;9.07;5.00;;;6.90;92.70;;;;;;5113519;28;20431;-83
2020/12/03 07:00:05;;;;;;;7.20;5.67;;;6.80;92.60;;;;;;5113174;28;20451;-83
2020/12/03 07:03:04;;;;;;;7.20;5.30;;;6.90;92.70;;;;;;5110733;28;20420;-84
2020/12/03 07:06:06;;;;;;;6.43;5.00;;;6.90;92.70;;;;;;5079398;28;20440;-84
2020/12/03 07:09:15;;;;;;;6.23;5.63;;;6.90;92.50;;;;;;5106905;28;20812;-84
2020/12/03 07:12:03;;;;;;;6.33;5.30;;;6.90;92.60;;;;;;5107315;28;20443;-83
2020/12/03 07:15:14;;;;;;;8.80;4.40;;;6.90;92.50;;;;;;5106314;28;20456;-84
2020/12/03 07:18:14;;;;;;;7.60;5.43;;;6.90;92.50;;;;;;5109126;28;20434;-83
2020/12/03 07:20:58;;;;;;;6.27;4.70;;;6.90;92.50;;;;;;5108052;28;20420;-83
2020/12/03 07:23:35;;;;;;;5.10;4.33;;;7.00;92.40;;;;;;5103427;28;20475;-83
2020/12/03 07:26:05;;;;;;;5.87;5.17;;;7.00;92.40;;;;;;5101444;28;20467;-84
2020/12/03 07:28:37;;;;;;;7.50;5.80;;;6.90;92.20;;;;;;5111072;28;20433;-83
2020/12/03 07:31:11;;;;;;;7.23;4.57;;;6.90;92.30;;;;;;5112728;28;20890;-84
2020/12/03 07:33:56;;;;;;;5.60;4.20;;;6.90;92.30;;;;;;5099009;28;20500;-83
2020/12/03 07:36:38;;;;;;;5.53;4.70;;;6.80;92.40;;;;;;5100342;28;20841;-84
2020/12/03 07:39:10;;;;;;;6.20;5.47;;;6.80;92.50;;;;;;5099140;28;20435;-84
2020/12/03 07:41:47;;;;;;;8.00;5.13;;;6.80;92.60;;;;;;5098579;28;20424;-84
2020/12/03 07:44:33;;;;;;;6.77;5.70;;;6.90;92.70;;;;;;5100483;28;20448;-83
2020/12/03 07:47:21;;;;;;;7.53;5.03;;;6.90;92.60;;;;;;5098639;28;20432;-85
2020/12/03 07:49:51;;;;;;;8.63;5.20;;;6.90;92.70;;;;;;5097208;28;20432;-86
2020/12/03 07:52:29;;;;;;;7.87;5.20;;;6.80;92.70;;;;;;5096790;28;20484;-86
2020/12/03 07:55:29;;;;;;;7.30;5.97;;;6.80;92.80;;;;;;5096699;28;20464;-86
2020/12/03 07:57:57;;;;;;;13.03;6.20;;;6.80;92.90;;;;;;5096844;28;20454;-85
2020/12/03 08:00:46;;;;;;;7.77;6.23;;;6.80;92.90;;;;;;5096614;28;20497;-83
2020/12/03 08:03:43;;;;;;;8.13;6.13;;;6.90;93.00;;;;;;5094293;28;20818;-84
2020/12/03 08:06:30;;;;;;;9.40;6.93;;;6.80;92.90;;;;;;5100021;28;20446;-85
2020/12/03 08:09:23;;;;;;;9.53;6.23;;;6.90;93.00;;;;;;5097632;28;20423;-85
2020/12/03 08:12:07;;;;;;;9.97;6.60;;;6.80;92.80;;;;;;5097408;28;20416;-85
2020/12/03 08:14:44;;;;;;;8.33;6.80;;;6.80;92.80;;;;;;5096750;28;21018;-85
2020/12/03 08:17:42;;;;;;;9.83;6.67;;;6.90;93.00;;;;;;5097391;28;20427;-85
2020/12/03 08:20:15;;;;;;;9.90;6.90;;;6.80;92.90;;;;;;5096923;28;20424;-85
2020/12/03 08:22:43;;;;;;;7.90;6.10;;;6.90;93.00;;;;;;5096609;28;20431;-85
2020/12/03 08:25:12;;;;;;;8.33;6.17;;;6.90;93.00;;;;;;5096302;28;20478;-84
2020/12/03 08:27:40;;;;;;;8.17;6.37;;;6.90;92.90;;;;;;5096471;28;20933;-85
2020/12/03 08:30:38;;;;;;;10.90;6.50;;;6.90;92.90;;;;;;5096511;28;20799;-85
2020/12/03 08:33:07;;;;;;;11.63;6.90;;;6.90;93.00;;;;;;5096603;28;20490;-84
2020/12/03 08:35:34;;;;;;;9.73;6.80;;;6.90;92.80;;;;;;5096286;28;20439;-84
2020/12/03 08:38:01;;;;;;;8.23;6.53;;;6.90;92.60;;;;;;5096516;28;20443;-85
2020/12/03 08:40:29;;;;;;;7.93;6.00;;;6.90;92.60;;;;;;5096146;28;20993;-85
2020/12/03 08:43:03;;;;;;;9.00;6.30;;;6.90;92.60;;;;;;5096491;28;20509;-85
2020/12/03 08:45:32;;;;;;;7.37;6.50;;;6.90;92.60;;;;;;5096179;28;20486;-85
2020/12/03 08:48:00;;;;;;;9.70;6.93;;;6.90;92.50;;;;;;5096212;28;20462;-85
2020/12/03 08:50:27;;;;;;;7.60;6.57;;;7.00;92.50;;;;;;5095635;28;20436;-85
2020/12/03 08:52:54;;;;;;;9.30;6.07;;;7.00;92.60;;;;;;5096483;28;20470;-85
2020/12/03 08:55:20;;;;;;;15.73;6.60;;;7.00;92.60;;;;;;5095887;28;20455;-85
2020/12/03 08:57:52;;;;;;;8.80;6.70;;;7.10;92.50;;;;;;5096159;28;20436;-85
2020/12/03 09:00:21;;;;;;;11.80;7.47;;;7.10;92.60;;;;;;5096138;28;20429;-85
2020/12/03 09:02:48;;;;;;;7.10;6.30;;;7.20;92.50;;;;;;5095882;28;20443;-85
2020/12/03 09:05:15;;;;;;;7.67;6.30;;;7.20;92.30;;;;;;5096010;28;20468;-85
2020/12/03 09:07:44;;;;;;;9.97;6.97;;;7.20;92.00;;;;;;5095971;28;20446;-84
2020/12/03 09:10:12;;;;;;;9.40;7.07;;;7.20;91.80;;;;;;5095206;28;20924;-84
2020/12/03 09:12:43;;;;;;;10.00;7.23;;;7.20;91.80;;;;;;5095320;28;20487;-84
2020/12/03 09:15:11;;;;;;;9.83;7.10;;;7.20;91.90;;;;;;5095243;28;20468;-84
2020/12/03 09:17:40;;;;;;;9.90;6.97;;;7.20;91.90;;;;;;5095402;28;20451;-84
2020/12/03 09:20:08;;;;;;;8.63;5.83;;;7.20;91.60;;;;;;5095268;28;20408;-84
2020/12/03 09:22:36;;;;;;;9.13;7.20;;;7.20;91.80;;;;;;5096204;28;20871;-85
2020/12/03 09:25:05;;;;;;;9.63;7.00;;;7.10;91.80;;;;;;5095689;28;20463;-85
2020/12/03 09:27:36;;;;;;;9.37;6.37;;;7.20;91.90;;;;;;5095993;28;20436;-85
2020/12/03 09:30:04;;;;;;;9.67;6.87;;;7.20;91.80;;;;;;5099031;28;20459;-85
2020/12/03 09:32:32;;;;;;;12.33;7.83;;;7.10;91.70;;;;;;5096414;28;20578;-85
2020/12/03 09:34:59;;;;;;;9.13;6.57;;;7.10;91.80;;;;;;5095307;28;20462;-85
2020/12/03 09:37:28;;;;;;;10.33;7.23;;;7.10;91.70;;;;;;5096189;28;20435;-85
2020/12/03 09:39:56;;;;;;;13.93;7.57;;;7.10;91.60;;;;;;5095975;28;20428;-85
2020/12/03 09:42:24;;;;;;;7.43;6.63;;;7.10;91.40;;;;;;5095767;28;20420;-85
2020/12/03 09:44:54;;;;;;;12.60;7.17;;;7.00;91.50;;;;;;5095534;28;20468;-85
2020/12/03 09:47:23;;;;;;;10.60;7.33;;;7.00;91.70;;;;;;5096108;28;20432;-85
2020/12/03 09:49:52;;;;;;;10.67;7.10;;;7.00;91.90;;;;;;5095372;28;20456;-85
2020/12/03 09:52:19;;;;;;;10.00;7.10;;;7.00;92.00;;;;;;5095700;28;20784;-85
2020/12/03 09:54:46;;;;;;;9.17;6.47;;;7.00;92.00;;;;;;5095116;28;20831;-85
2020/12/03 09:57:12;;;;;;;9.47;7.30;;;7.00;91.90;;;;;;5095411;28;20914;-85
2020/12/03 09:59:40;;;;;;;11.50;7.70;;;7.00;92.10;;;;;;5095869;28;20993;-84
2020/12/03 10:02:34;;;;;;;11.40;7.27;;;7.00;91.90;;;;;;5097965;28;20427;-83
2020/12/03 10:05:14;;;;;;;11.27;8.10;;;7.00;92.00;;;;;;5101553;28;20452;-85
2020/12/03 10:08:16;;;;;;;8.90;7.30;;;7.00;92.10;;;;;;5099276;28;20424;-85
2020/12/03 10:10:52;;;;;;;11.37;8.33;;;7.00;92.30;;;;;;5061971;28;20454;-85
2020/12/03 10:13:37;;;;;;;9.50;8.17;;;6.90;92.40;;;;;;5098830;28;20463;-84
2020/12/03 10:16:07;;;;;;;11.13;7.50;;;7.00;92.40;;;;;;5099452;28;20527;-85
2020/12/03 10:18:43;;;;;;;10.00;7.33;;;7.00;92.50;;;;;;5098818;28;20428;-85
2020/12/03 10:21:10;;;;;;;12.27;8.07;;;7.00;92.50;;;;;;5098693;28;20424;-85
2020/12/03 10:23:39;;;;;;;10.93;8.17;;;7.00;92.40;;;;;;5100169;28;21095;-82
2020/12/03 10:26:31;;;;;;;12.10;8.10;;;7.00;92.60;;;;;;5102967;28;20459;-82
2020/12/03 10:29:13;;;;;;;12.70;7.87;;;7.00;92.70;;;;;;5102100;28;20430;-82
2020/12/03 10:31:41;;;;;;;10.17;8.30;;;7.00;92.60;;;;;;5102406;28;20928;-83
2020/12/03 10:34:10;;;;;;;11.37;7.77;;;7.00;92.50;;;;;;5103920;28;20487;-82
2020/12/03 10:36:47;;;;;;;12.90;8.40;;;6.90;92.40;;;;;;5103805;28;20447;-82
2020/12/03 10:39:16;;;;;;;11.97;8.30;;;6.90;92.70;;;;;;5102402;28;20424;-82
2020/12/03 10:41:48;;;;;;;13.40;7.93;;;6.90;93.00;;;;;;5101935;28;20917;-82
2020/12/03 10:44:19;;;;;;;10.60;7.33;;;6.90;93.00;;;;;;5102199;28;20471;-83
2020/12/03 10:46:51;;;;;;;13.80;7.70;;;6.90;92.70;;;;;;5103578;28;20428;-83
2020/12/03 10:49:21;;;;;;;9.93;7.47;;;6.90;92.80;;;;;;5103653;28;20428;-83
2020/12/03 10:51:48;;;;;;;11.37;7.23;;;6.90;93.10;;;;;;5101570;28;20452;-82
2020/12/03 10:54:18;;;;;;;10.80;7.87;;;7.00;92.80;;;;;;5100180;28;20835;-82
2020/12/03 10:56:48;;;;;;;10.70;8.23;;;7.00;92.70;;;;;;5100574;28;20439;-83
2020/12/03 11:02:23;;;;;;;11.10;7.30;;;7.10;92.70;;;;;;5096256;28;20490;-82
2020/12/03 11:04:51;;;;;;;9.30;7.20;;;7.20;92.30;;;;;;5100733;28;20459;-80
2020/12/03 11:07:17;;;;;;;10.10;7.57;;;7.20;92.20;;;;;;5100827;28;20775;-82
2020/12/03 11:09:50;;;;;;;8.30;7.00;;;7.20;92.10;;;;;;5099785;28;20446;-82
2020/12/03 11:12:17;;;;;;;10.07;6.90;;;7.30;92.30;;;;;;5099586;28;20424;-82
2020/12/03 11:14:44;;;;;;;10.30;7.47;;;7.40;92.40;;;;;;5099428;28;20467;-83
2020/12/03 11:17:33;;;;;;;9.57;7.03;;;7.50;92.20;;;;;;5099426;28;20448;-82
2020/12/03 11:20:04;;;;;;;10.20;7.10;;;7.50;91.70;;;;;;5099112;28;20432;-81
2020/12/03 11:22:58;;;;;;;9.47;7.60;;;7.50;91.40;;;;;;5099285;28;20502;-81
2020/12/03 11:25:27;;;;;;;9.83;7.40;;;7.60;91.20;;;;;;5098750;28;20471;-82
2020/12/03 11:27:55;;;;;;;8.77;7.53;;;7.60;91.10;;;;;;5099844;28;20440;-81
2020/12/03 11:30:23;;;;;;;11.53;7.07;;;7.60;90.80;;;;;;5099780;28;20495;-82
2020/12/03 11:32:52;;;;;;;7.97;6.17;;;7.60;90.90;;;;;;5099374;28;20521;-82
2020/12/03 11:35:23;;;;;;;9.20;7.00;;;7.60;90.80;;;;;;5159025;22;20497;-75
2020/12/03 11:37:51;;;;;;;8.23;6.77;;;7.60;90.90;;;;;;5034588;28;20447;-75
2020/12/03 11:40:33;;;;;;;10.73;6.73;;;7.70;91.10;;;;;;5034614;28;20463;-75
2020/12/03 11:43:16;;;;;;;9.20;7.40;;;7.70;90.50;;;;;;5034582;28;20425;-75
2020/12/03 11:46:21;;;;;;;8.93;6.83;;;7.70;90.30;;;;;;5034672;28;20462;-75
2020/12/03 11:48:51;;;;;;;8.60;6.83;;;7.70;90.30;;;;;;5034413;28;20538;-74
2020/12/03 11:51:27;;;;;;;9.53;6.57;;;7.70;89.80;;;;;;5034432;28;20427;-75
2020/12/03 11:53:59;;;;;;;9.80;6.80;;;7.70;90.00;;;;;;5034321;28;20859;-75
2020/12/03 11:56:25;;;;;;;9.80;6.77;;;7.60;90.10;;;;;;5034168;28;20474;-74
2020/12/03 11:58:53;;;;;;;11.33;6.90;;;7.70;90.00;;;;;;5034226;28;20447;-76
2020/12/03 12:01:19;;;;;;;7.10;6.40;;;7.70;90.00;;;;;;5034332;28;20431;-74
2020/12/03 12:03:47;;;;;;;7.80;6.37;;;7.70;89.90;;;;;;5034204;28;20434;-74
2020/12/03 12:06:20;;;;;;;10.93;6.90;;;7.80;90.10;;;;;;5034043;28;20463;-74
2020/12/03 12:08:52;;;;;;;7.80;5.63;;;7.80;89.90;;;;;;5034150;28;20869;-74
2020/12/03 12:11:22;;;;;;;8.67;6.40;;;7.90;90.00;;;;;;5034014;28;20427;-74
2020/12/03 12:13:52;;;;;;;6.93;5.43;;;8.10;89.30;;;;;;5033990;28;20466;-74
2020/12/03 12:16:18;;;;;;;5.60;5.00;;;8.10;88.70;;;;;;5033864;28;20466;-74
2020/12/03 12:18:46;;;;;;;6.07;4.80;;;8.20;88.10;;;;;;5034015;28;20434;-74
2020/12/03 12:21:12;;;;;;;6.57;4.67;;;8.30;87.20;;;;;;5033900;28;20477;-76
2020/12/03 12:23:38;;;;;;;5.30;4.80;;;8.30;86.80;;;;;;5033841;28;20979;-75
2020/12/03 12:26:05;;;;;;;6.93;4.77;;;8.40;86.70;;;;;;5032854;28;20469;-75
2020/12/03 12:28:32;;;;;;;6.67;4.87;;;8.40;86.40;;;;;;5033529;28;20438;-74
2020/12/03 12:30:58;;;;;;;6.57;5.03;;;8.40;86.10;;;;;;5033773;28;20438;-75
2020/12/03 12:33:24;;;;;;;5.37;4.40;;;8.40;85.60;;;;;;5033356;28;20991;-75
2020/12/03 12:35:50;;;;;;;6.23;4.70;;;8.40;85.90;;;;;;5033444;28;20473;-76
2020/12/03 12:38:16;;;;;;;5.03;4.53;;;8.40;85.00;;;;;;5033672;28;20443;-75
2020/12/03 12:40:43;;;;;;;5.40;4.87;;;8.40;85.70;;;;;;5033427;28;20908;-75
2020/12/03 12:43:10;;;;;;;6.83;4.20;;;8.40;85.30;;;;;;5033515;28;20442;-75
2020/12/03 12:45:36;;;;;;;5.90;4.07;;;8.30;85.10;;;;;;5033831;28;20462;-75
2020/12/03 12:48:02;;;;;;;6.80;5.00;;;8.30;85.40;;;;;;5033522;28;20447;-75
2020/12/03 12:50:28;;;;;;;5.40;4.50;;;8.30;85.80;;;;;;5033190;28;20433;-75
2020/12/03 12:52:55;;;;;;;7.17;5.20;;;8.30;85.40;;;;;;5033413;28;20486;-74
2020/12/03 12:55:21;;;;;;;6.10;5.17;;;8.20;85.90;;;;;;5033441;28;20869;-76
2020/12/03 12:57:47;;;;;;;5.13;4.27;;;8.20;85.80;;;;;;5033369;28;20446;-75
2020/12/03 13:00:15;;;;;;;6.00;4.40;;;8.20;86.20;;;;;;5033424;28;20785;-75
2020/12/03 13:02:41;;;;;;;5.07;4.00;;;8.20;86.40;;;;;;5033063;28;20438;-75
2020/12/03 13:05:07;;;;;;;5.07;4.53;;;8.20;86.20;;;;;;5033539;28;20455;-75
2020/12/03 13:07:33;;;;;;;5.67;4.50;;;8.10;86.50;;;;;;5033376;28;20442;-75
2020/12/03 13:09:59;;;;;;;5.90;4.60;;;8.10;86.10;;;;;;5032948;28;20931;-75
2020/12/03 13:12:25;;;;;;;3.93;3.53;;;8.10;86.70;;;;;;5033295;28;20423;-75
2020/12/03 13:14:52;;;;;;;5.80;4.17;;;8.10;85.90;;;;;;5033106;28;20486;-75
2020/12/03 13:17:21;;;;;;;5.90;5.07;;;8.10;86.20;;;;;;5033322;28;20438;-75
2020/12/03 13:19:47;;;;;;;5.03;4.20;;;8.10;86.20;;;;;;5033006;28;20948;-76
2020/12/03 13:22:13;;;;;;;5.10;4.53;;;8.10;86.60;;;;;;5033272;28;20461;-76
2020/12/03 13:24:39;;;;;;;5.80;4.67;;;8.10;87.10;;;;;;5032889;28;20807;-76
2020/12/03 13:27:06;;;;;;;4.73;4.13;;;8.10;87.10;;;;;;5033206;28;20458;-76
2020/12/03 13:29:32;;;;;;;7.03;4.47;;;8.10;87.10;;;;;;5033183;28;20522;-76